Terminal Aerodrome Forecast
Issued by NWS Austin/San Antonio, TX

Home | Current Version | Previous Version | Text Only | Print | Product List | Glossary On
Versions: 1 2 3 4 5 6 7 8 9 10 11 12 13 14 15 16 17 18 19 20 21 22 23 24 25
125
FTUS44 KEWX 221602 AAC
TAFSAT
TAF AMD
KSAT 221602Z 2216/2318 12008KT 1SM BR OVC003
     FM221700 12010KT 3SM BR OVC006
     FM221900 11012KT P6SM OVC015
     FM230600 11007KT P6SM OVC007
     FM230900 12007KT P6SM OVC004=

USA.gov is the U.S. government's official web portal to all federal, state and local government web resources and services.